sensor_id;sensor_type;location;lat;lon;timestamp;temperature;humidity
9043;DHT22;4556;49.150;8.808;2022-09-09T00:00:48;14.70;99.90
9043;DHT22;4556;49.150;8.808;2022-09-09T00:03:22;13.50;99.90
9043;DHT22;4556;49.150;8.808;2022-09-09T00:05:58;16.40;99.90
9043;DHT22;4556;49.150;8.808;2022-09-09T00:08:35;15.20;99.90
9043;DHT22;4556;49.150;8.808;2022-09-09T00:11:05;15.60;99.90
9043;DHT22;4556;49.150;8.808;2022-09-09T00:13:37;13.70;99.90
9043;DHT22;4556;49.150;8.808;2022-09-09T00:16:14;13.70;99.90
9043;DHT22;4556;49.150;8.808;2022-09-09T00:18:51;15.00;99.90
9043;DHT22;4556;49.150;8.808;2022-09-09T00:21:21;13.90;99.90
9043;DHT22;4556;49.150;8.808;2022-09-09T00:23:53;13.70;99.90
9043;DHT22;4556;49.150;8.808;2022-09-09T00:26:24;13.80;99.90
9043;DHT22;4556;49.150;8.808;2022-09-09T00:29:09;13.50;99.90
9043;DHT22;4556;49.150;8.808;2022-09-09T00:31:39;14.70;99.90
9043;DHT22;4556;49.150;8.808;2022-09-09T00:34:11;13.90;99.90
9043;DHT22;4556;49.150;8.808;2022-09-09T00:36:39;14.10;99.90
9043;DHT22;4556;49.150;8.808;2022-09-09T00:39:13;16.10;99.90
9043;DHT22;4556;49.150;8.808;2022-09-09T00:41:52;14.10;99.90
9043;DHT22;4556;49.150;8.808;2022-09-09T00:44:28;14.00;99.90
9043;DHT22;4556;49.150;8.808;2022-09-09T00:47:09;14.40;99.90
9043;DHT22;4556;49.150;8.808;2022-09-09T00:49:46;14.00;99.90
9043;DHT22;4556;49.150;8.808;2022-09-09T00:52:25;15.50;99.90
9043;DHT22;4556;49.150;8.808;2022-09-09T00:55:02;16.80;99.90
9043;DHT22;4556;49.150;8.808;2022-09-09T00:57:31;14.00;99.90
9043;DHT22;4556;49.150;8.808;2022-09-09T01:00:16;14.00;99.90
9043;DHT22;4556;49.150;8.808;2022-09-09T01:03:02;13.90;99.90
9043;DHT22;4556;49.150;8.808;2022-09-09T01:05:37;15.10;99.90
9043;DHT22;4556;49.150;8.808;2022-09-09T01:08:18;14.40;99.90
9043;DHT22;4556;49.150;8.808;2022-09-09T01:10:51;14.00;99.90
9043;DHT22;4556;49.150;8.808;2022-09-09T01:13:24;13.90;99.90
9043;DHT22;4556;49.150;8.808;2022-09-09T01:15:52;14.60;99.90
9043;DHT22;4556;49.150;8.808;2022-09-09T01:18:22;14.40;99.90
9043;DHT22;4556;49.150;8.808;2022-09-09T01:21:00;14.00;99.90
9043;DHT22;4556;49.150;8.808;2022-09-09T01:23:41;14.10;99.90
9043;DHT22;4556;49.150;8.808;2022-09-09T01:26:30;15.70;99.90
9043;DHT22;4556;49.150;8.808;2022-09-09T01:28:59;14.10;99.90
9043;DHT22;4556;49.150;8.808;2022-09-09T01:31:28;17.30;99.90
9043;DHT22;4556;49.150;8.808;2022-09-09T01:33:57;16.60;99.90
9043;DHT22;4556;49.150;8.808;2022-09-09T01:36:29;15.60;99.90
9043;DHT22;4556;49.150;8.808;2022-09-09T01:38:59;17.40;99.90
9043;DHT22;4556;49.150;8.808;2022-09-09T01:41:26;14.10;99.90
9043;DHT22;4556;49.150;8.808;2022-09-09T01:43:55;14.00;99.90
9043;DHT22;4556;49.150;8.808;2022-09-09T01:46:23;16.30;99.90
9043;DHT22;4556;49.150;8.808;2022-09-09T01:48:51;15.60;99.90
9043;DHT22;4556;49.150;8.808;2022-09-09T01:51:19;14.10;99.90
9043;DHT22;4556;49.150;8.808;2022-09-09T01:53:46;14.20;99.90
9043;DHT22;4556;49.150;8.808;2022-09-09T01:56:26;14.20;99.90
9043;DHT22;4556;49.150;8.808;2022-09-09T01:59:07;14.20;99.90
9043;DHT22;4556;49.150;8.808;2022-09-09T02:01:49;14.40;99.90
9043;DHT22;4556;49.150;8.808;2022-09-09T02:04:32;15.10;99.90
9043;DHT22;4556;49.150;8.808;2022-09-09T02:07:02;12.90;99.90
9043;DHT22;4556;49.150;8.808;2022-09-09T02:09:30;14.70;99.90
9043;DHT22;4556;49.150;8.808;2022-09-09T02:12:01;14.70;99.90
9043;DHT22;4556;49.150;8.808;2022-09-09T02:14:37;16.00;99.90
9043;DHT22;4556;49.150;8.808;2022-09-09T02:17:09;15.00;99.90
9043;DHT22;4556;49.150;8.808;2022-09-09T02:19:41;15.00;99.90
9043;DHT22;4556;49.150;8.808;2022-09-09T02:22:11;15.80;99.90
9043;DHT22;4556;49.150;8.808;2022-09-09T02:24:39;15.30;99.90
9043;DHT22;4556;49.150;8.808;2022-09-09T02:27:08;16.30;99.90
9043;DHT22;4556;49.150;8.808;2022-09-09T02:29:39;15.70;99.90
9043;DHT22;4556;49.150;8.808;2022-09-09T02:32:09;15.30;99.90
9043;DHT22;4556;49.150;8.808;2022-09-09T02:34:42;15.80;99.90
9043;DHT22;4556;49.150;8.808;2022-09-09T02:37:10;15.00;99.90
9043;DHT22;4556;49.150;8.808;2022-09-09T02:39:38;16.00;99.90
9043;DHT22;4556;49.150;8.808;2022-09-09T02:42:05;15.30;99.90
9043;DHT22;4556;49.150;8.808;2022-09-09T02:44:32;15.80;99.90
9043;DHT22;4556;49.150;8.808;2022-09-09T02:47:29;15.50;99.90
9043;DHT22;4556;49.150;8.808;2022-09-09T02:50:05;15.00;99.90
9043;DHT22;4556;49.150;8.808;2022-09-09T02:52:38;14.90;99.90
9043;DHT22;4556;49.150;8.808;2022-09-09T02:55:14;15.20;99.90
9043;DHT22;4556;49.150;8.808;2022-09-09T02:57:44;14.90;99.90
9043;DHT22;4556;49.150;8.808;2022-09-09T03:00:13;16.60;99.90
9043;DHT22;4556;49.150;8.808;2022-09-09T03:02:42;14.80;99.90
9043;DHT22;4556;49.150;8.808;2022-09-09T03:05:10;14.70;99.90
9043;DHT22;4556;49.150;8.808;2022-09-09T03:07:38;14.70;99.90
9043;DHT22;4556;49.150;8.808;2022-09-09T03:10:07;14.70;99.90
9043;DHT22;4556;49.150;8.808;2022-09-09T03:12:36;14.70;99.90
9043;DHT22;4556;49.150;8.808;2022-09-09T03:15:03;14.80;99.90
9043;DHT22;4556;49.150;8.808;2022-09-09T03:17:30;14.90;99.90
9043;DHT22;4556;49.150;8.808;2022-09-09T03:19:58;14.70;99.90
9043;DHT22;4556;49.150;8.808;2022-09-09T03:22:25;16.50;99.90
9043;DHT22;4556;49.150;8.808;2022-09-09T03:24:52;17.20;99.90
9043;DHT22;4556;49.150;8.808;2022-09-09T03:27:19;14.90;99.90
9043;DHT22;4556;49.150;8.808;2022-09-09T03:29:46;14.70;99.90
9043;DHT22;4556;49.150;8.808;2022-09-09T03:32:15;14.80;99.90
9043;DHT22;4556;49.150;8.808;2022-09-09T03:34:43;14.80;99.90
9043;DHT22;4556;49.150;8.808;2022-09-09T03:37:11;14.30;99.90
9043;DHT22;4556;49.150;8.808;2022-09-09T03:39:38;14.70;99.90
9043;DHT22;4556;49.150;8.808;2022-09-09T03:42:05;14.70;99.90
9043;DHT22;4556;49.150;8.808;2022-09-09T03:44:32;14.70;99.90
9043;DHT22;4556;49.150;8.808;2022-09-09T03:46:59;16.70;99.90
9043;DHT22;4556;49.150;8.808;2022-09-09T03:49:26;15.00;99.90
9043;DHT22;4556;49.150;8.808;2022-09-09T03:51:54;16.40;99.90
9043;DHT22;4556;49.150;8.808;2022-09-09T03:54:23;15.90;99.90
9043;DHT22;4556;49.150;8.808;2022-09-09T03:56:50;15.90;99.90
9043;DHT22;4556;49.150;8.808;2022-09-09T03:59:17;17.40;99.90
9043;DHT22;4556;49.150;8.808;2022-09-09T04:01:44;15.30;99.90
9043;DHT22;4556;49.150;8.808;2022-09-09T04:04:13;16.60;99.90
9043;DHT22;4556;49.150;8.808;2022-09-09T04:06:40;14.70;99.90
9043;DHT22;4556;49.150;8.808;2022-09-09T04:09:06;16.30;99.90
9043;DHT22;4556;49.150;8.808;2022-09-09T04:11:35;15.70;99.90
9043;DHT22;4556;49.150;8.808;2022-09-09T04:14:02;16.30;99.90
9043;DHT22;4556;49.150;8.808;2022-09-09T04:16:29;14.70;99.90
9043;DHT22;4556;49.150;8.808;2022-09-09T04:19:00;14.70;99.90
9043;DHT22;4556;49.150;8.808;2022-09-09T04:21:26;14.80;99.90
9043;DHT22;4556;49.150;8.808;2022-09-09T04:23:53;14.60;99.90
9043;DHT22;4556;49.150;8.808;2022-09-09T04:26:20;14.70;99.90
9043;DHT22;4556;49.150;8.808;2022-09-09T04:28:49;16.00;99.90
9043;DHT22;4556;49.150;8.808;2022-09-09T04:31:38;14.60;99.90
9043;DHT22;4556;49.150;8.808;2022-09-09T04:34:12;14.50;99.90
9043;DHT22;4556;49.150;8.808;2022-09-09T04:36:43;13.80;99.90
9043;DHT22;4556;49.150;8.808;2022-09-09T04:39:30;16.60;99.90
9043;DHT22;4556;49.150;8.808;2022-09-09T04:42:23;16.70;99.90
9043;DHT22;4556;49.150;8.808;2022-09-09T04:45:08;14.10;99.90
9043;DHT22;4556;49.150;8.808;2022-09-09T04:47:47;14.10;99.90
9043;DHT22;4556;49.150;8.808;2022-09-09T04:50:28;14.40;99.90
9043;DHT22;4556;49.150;8.808;2022-09-09T04:53:28;13.70;99.90
9043;DHT22;4556;49.150;8.808;2022-09-09T04:56:13;13.90;99.90
9043;DHT22;4556;49.150;8.808;2022-09-09T04:58:54;16.30;99.90
9043;DHT22;4556;49.150;8.808;2022-09-09T05:02:15;14.20;99.90
9043;DHT22;4556;49.150;8.808;2022-09-09T05:05:03;14.30;99.90
9043;DHT22;4556;49.150;8.808;2022-09-09T05:07:53;14.70;99.90
9043;DHT22;4556;49.150;8.808;2022-09-09T05:10:50;14.40;99.90
9043;DHT22;4556;49.150;8.808;2022-09-09T05:13:39;14.60;99.90
9043;DHT22;4556;49.150;8.808;2022-09-09T05:17:01;14.30;99.90
9043;DHT22;4556;49.150;8.808;2022-09-09T06:26:19;15.20;99.90
9043;DHT22;4556;49.150;8.808;2022-09-09T06:28:50;15.30;99.90
9043;DHT22;4556;49.150;8.808;2022-09-09T06:31:27;14.90;99.90
9043;DHT22;4556;49.150;8.808;2022-09-09T06:34:06;15.40;99.90
9043;DHT22;4556;49.150;8.808;2022-09-09T06:36:40;15.70;99.90
9043;DHT22;4556;49.150;8.808;2022-09-09T06:39:19;17.50;99.90
9043;DHT22;4556;49.150;8.808;2022-09-09T06:41:56;15.10;99.90
9043;DHT22;4556;49.150;8.808;2022-09-09T06:44:34;16.90;99.90
9043;DHT22;4556;49.150;8.808;2022-09-09T06:47:05;15.70;99.90
9043;DHT22;4556;49.150;8.808;2022-09-09T06:49:34;16.20;99.90
9043;DHT22;4556;49.150;8.808;2022-09-09T06:52:02;16.20;99.90
9043;DHT22;4556;49.150;8.808;2022-09-09T06:54:31;14.50;99.90
9043;DHT22;4556;49.150;8.808;2022-09-09T06:57:00;16.90;99.90
9043;DHT22;4556;49.150;8.808;2022-09-09T06:59:28;18.30;99.90
9043;DHT22;4556;49.150;8.808;2022-09-09T07:01:58;16.70;99.90
9043;DHT22;4556;49.150;8.808;2022-09-09T07:04:25;17.00;99.90
9043;DHT22;4556;49.150;8.808;2022-09-09T07:06:54;16.80;99.90
9043;DHT22;4556;49.150;8.808;2022-09-09T07:09:21;18.00;99.90
9043;DHT22;4556;49.150;8.808;2022-09-09T07:35:53;18.60;99.90
9043;DHT22;4556;49.150;8.808;2022-09-09T07:38:23;18.80;99.90
9043;DHT22;4556;49.150;8.808;2022-09-09T07:40:52;18.40;99.90
9043;DHT22;4556;49.150;8.808;2022-09-09T07:43:25;18.90;99.90
9043;DHT22;4556;49.150;8.808;2022-09-09T07:45:57;18.20;99.90
9043;DHT22;4556;49.150;8.808;2022-09-09T07:54:23;18.80;99.90
9043;DHT22;4556;49.150;8.808;2022-09-09T07:56:52;18.60;99.90
9043;DHT22;4556;49.150;8.808;2022-09-09T07:59:23;18.50;99.90
9043;DHT22;4556;49.150;8.808;2022-09-09T08:01:51;18.50;99.90
9043;DHT22;4556;49.150;8.808;2022-09-09T08:09:41;19.00;99.90
9043;DHT22;4556;49.150;8.808;2022-09-09T08:12:09;19.00;99.90
9043;DHT22;4556;49.150;8.808;2022-09-09T08:14:38;18.90;99.90
9043;DHT22;4556;49.150;8.808;2022-09-09T08:17:05;19.10;99.90
9043;DHT22;4556;49.150;8.808;2022-09-09T08:19:33;18.90;99.90
9043;DHT22;4556;49.150;8.808;2022-09-09T08:22:01;18.90;99.90
9043;DHT22;4556;49.150;8.808;2022-09-09T08:24:28;19.60;99.90
9043;DHT22;4556;49.150;8.808;2022-09-09T08:26:57;19.40;99.90
9043;DHT22;4556;49.150;8.808;2022-09-09T08:29:23;19.40;99.90
9043;DHT22;4556;49.150;8.808;2022-09-09T08:31:52;20.50;99.90
9043;DHT22;4556;49.150;8.808;2022-09-09T08:34:21;19.60;99.90
9043;DHT22;4556;49.150;8.808;2022-09-09T08:36:49;19.50;99.90
9043;DHT22;4556;49.150;8.808;2022-09-09T08:39:22;19.70;99.90
9043;DHT22;4556;49.150;8.808;2022-09-09T08:48:06;19.40;99.90
9043;DHT22;4556;49.150;8.808;2022-09-09T08:50:36;19.40;99.90
9043;DHT22;4556;49.150;8.808;2022-09-09T08:53:08;19.50;99.90
9043;DHT22;4556;49.150;8.808;2022-09-09T08:55:41;19.70;99.90
9043;DHT22;4556;49.150;8.808;2022-09-09T08:58:23;19.60;99.90
9043;DHT22;4556;49.150;8.808;2022-09-09T09:01:15;21.00;99.90
9043;DHT22;4556;49.150;8.808;2022-09-09T09:03:51;19.60;99.90
9043;DHT22;4556;49.150;8.808;2022-09-09T09:06:42;18.20;99.90
9043;DHT22;4556;49.150;8.808;2022-09-09T09:09:23;19.40;99.90
9043;DHT22;4556;49.150;8.808;2022-09-09T09:11:57;19.00;99.90
9043;DHT22;4556;49.150;8.808;2022-09-09T09:27:01;18.30;99.90
9043;DHT22;4556;49.150;8.808;2022-09-09T09:29:34;18.40;99.90
9043;DHT22;4556;49.150;8.808;2022-09-09T09:32:31;18.20;99.90
9043;DHT22;4556;49.150;8.808;2022-09-09T09:35:11;18.50;99.90
9043;DHT22;4556;49.150;8.808;2022-09-09T09:38:35;18.80;99.90
9043;DHT22;4556;49.150;8.808;2022-09-09T09:41:49;20.40;99.90
9043;DHT22;4556;49.150;8.808;2022-09-09T09:44:32;19.60;99.90
9043;DHT22;4556;49.150;8.808;2022-09-09T09:47:06;19.50;99.90
9043;DHT22;4556;49.150;8.808;2022-09-09T09:49:34;19.70;99.90
9043;DHT22;4556;49.150;8.808;2022-09-09T09:52:01;19.80;99.90
9043;DHT22;4556;49.150;8.808;2022-09-09T09:54:30;20.10;99.90
9043;DHT22;4556;49.150;8.808;2022-09-09T09:57:08;20.40;99.90
9043;DHT22;4556;49.150;8.808;2022-09-09T09:59:37;20.30;99.90
9043;DHT22;4556;49.150;8.808;2022-09-09T10:02:31;20.40;99.90
9043;DHT22;4556;49.150;8.808;2022-09-09T10:05:36;20.40;99.90
9043;DHT22;4556;49.150;8.808;2022-09-09T10:08:10;20.40;99.90
9043;DHT22;4556;49.150;8.808;2022-09-09T10:10:57;20.30;99.90
9043;DHT22;4556;49.150;8.808;2022-09-09T10:13:44;21.40;99.90
9043;DHT22;4556;49.150;8.808;2022-09-09T10:19:30;20.30;99.90
9043;DHT22;4556;49.150;8.808;2022-09-09T10:22:27;20.90;99.90
9043;DHT22;4556;49.150;8.808;2022-09-09T10:28:11;21.50;99.90
9043;DHT22;4556;49.150;8.808;2022-09-09T10:30:57;20.70;99.90
9043;DHT22;4556;49.150;8.808;2022-09-09T10:33:50;21.40;99.90
9043;DHT22;4556;49.150;8.808;2022-09-09T10:36:26;21.00;99.90
9043;DHT22;4556;49.150;8.808;2022-09-09T10:39:31;21.10;99.90
9043;DHT22;4556;49.150;8.808;2022-09-09T10:42:04;21.00;99.90
9043;DHT22;4556;49.150;8.808;2022-09-09T10:44:51;22.10;99.90
9043;DHT22;4556;49.150;8.808;2022-09-09T10:47:47;20.70;99.90
9043;DHT22;4556;49.150;8.808;2022-09-09T10:50:53;21.20;99.90
9043;DHT22;4556;49.150;8.808;2022-09-09T10:53:36;21.30;99.90
9043;DHT22;4556;49.150;8.808;2022-09-09T10:56:24;21.30;99.90
9043;DHT22;4556;49.150;8.808;2022-09-09T10:58:56;21.10;99.90
9043;DHT22;4556;49.150;8.808;2022-09-09T11:01:47;21.30;99.90
9043;DHT22;4556;49.150;8.808;2022-09-09T11:04:23;21.20;99.90
9043;DHT22;4556;49.150;8.808;2022-09-09T11:07:26;21.30;99.90
9043;DHT22;4556;49.150;8.808;2022-09-09T11:10:21;21.50;99.90
9043;DHT22;4556;49.150;8.808;2022-09-09T11:12:56;21.10;99.90
9043;DHT22;4556;49.150;8.808;2022-09-09T11:15:38;21.20;99.90
9043;DHT22;4556;49.150;8.808;2022-09-09T11:18:13;20.80;99.90
9043;DHT22;4556;49.150;8.808;2022-09-09T11:21:00;20.80;99.90
9043;DHT22;4556;49.150;8.808;2022-09-09T11:23:37;21.00;99.90
9043;DHT22;4556;49.150;8.808;2022-09-09T11:26:38;20.50;99.90
9043;DHT22;4556;49.150;8.808;2022-09-09T11:32:00;20.70;99.90
9043;DHT22;4556;49.150;8.808;2022-09-09T11:34:53;21.00;99.90
9043;DHT22;4556;49.150;8.808;2022-09-09T11:37:49;21.00;99.90
9043;DHT22;4556;49.150;8.808;2022-09-09T11:40:27;21.10;99.90
9043;DHT22;4556;49.150;8.808;2022-09-09T11:43:40;21.00;99.90
9043;DHT22;4556;49.150;8.808;2022-09-09T11:46:31;21.10;99.90
9043;DHT22;4556;49.150;8.808;2022-09-09T11:49:40;21.20;99.90
9043;DHT22;4556;49.150;8.808;2022-09-09T11:55:24;20.90;99.90
9043;DHT22;4556;49.150;8.808;2022-09-09T11:58:04;20.90;99.90
9043;DHT22;4556;49.150;8.808;2022-09-09T12:09:06;21.00;99.90
9043;DHT22;4556;49.150;8.808;2022-09-09T12:25:51;21.30;99.90
9043;DHT22;4556;49.150;8.808;2022-09-09T12:36:31;21.40;99.90
9043;DHT22;4556;49.150;8.808;2022-09-09T12:42:28;21.80;99.90
9043;DHT22;4556;49.150;8.808;2022-09-09T12:45:38;21.60;99.90
9043;DHT22;4556;49.150;8.808;2022-09-09T12:48:09;21.80;99.90
9043;DHT22;4556;49.150;8.808;2022-09-09T12:51:17;21.70;99.90
9043;DHT22;4556;49.150;8.808;2022-09-09T12:54:22;22.00;99.90
9043;DHT22;4556;49.150;8.808;2022-09-09T12:57:03;21.90;99.90
9043;DHT22;4556;49.150;8.808;2022-09-09T12:59:41;21.70;99.90
9043;DHT22;4556;49.150;8.808;2022-09-09T13:02:18;21.90;99.90
9043;DHT22;4556;49.150;8.808;2022-09-09T13:04:45;21.50;99.90
9043;DHT22;4556;49.150;8.808;2022-09-09T13:07:13;21.40;99.90
9043;DHT22;4556;49.150;8.808;2022-09-09T13:09:42;21.20;99.90
9043;DHT22;4556;49.150;8.808;2022-09-09T13:12:13;21.20;99.90
9043;DHT22;4556;49.150;8.808;2022-09-09T13:18:29;21.30;99.90
9043;DHT22;4556;49.150;8.808;2022-09-09T13:20:57;21.20;99.90
9043;DHT22;4556;49.150;8.808;2022-09-09T13:23:27;20.90;99.90
9043;DHT22;4556;49.150;8.808;2022-09-09T13:25:56;20.60;99.90
9043;DHT22;4556;49.150;8.808;2022-09-09T13:28:25;20.50;99.90
9043;DHT22;4556;49.150;8.808;2022-09-09T13:31:00;20.10;99.90
9043;DHT22;4556;49.150;8.808;2022-09-09T13:33:34;20.00;99.90
9043;DHT22;4556;49.150;8.808;2022-09-09T13:36:04;19.40;99.90
9043;DHT22;4556;49.150;8.808;2022-09-09T13:38:36;19.60;99.90
9043;DHT22;4556;49.150;8.808;2022-09-09T13:41:06;19.30;99.90
9043;DHT22;4556;49.150;8.808;2022-09-09T13:43:37;18.50;99.90
9043;DHT22;4556;49.150;8.808;2022-09-09T13:46:27;18.20;99.90
9043;DHT22;4556;49.150;8.808;2022-09-09T13:48:59;19.50;99.90
9043;DHT22;4556;49.150;8.808;2022-09-09T13:51:35;18.20;99.90
9043;DHT22;4556;49.150;8.808;2022-09-09T13:54:05;18.30;99.90
9043;DHT22;4556;49.150;8.808;2022-09-09T13:56:39;18.40;99.90
9043;DHT22;4556;49.150;8.808;2022-09-09T13:59:20;18.40;99.90
9043;DHT22;4556;49.150;8.808;2022-09-09T14:02:19;18.60;99.90
9043;DHT22;4556;49.150;8.808;2022-09-09T14:04:58;18.70;99.90
9043;DHT22;4556;49.150;8.808;2022-09-09T14:07:27;18.40;99.90
9043;DHT22;4556;49.150;8.808;2022-09-09T14:09:59;17.60;99.90
9043;DHT22;4556;49.150;8.808;2022-09-09T14:12:26;18.20;99.90
9043;DHT22;4556;49.150;8.808;2022-09-09T14:14:54;18.20;99.90
9043;DHT22;4556;49.150;8.808;2022-09-09T14:17:24;18.40;99.90
9043;DHT22;4556;49.150;8.808;2022-09-09T14:19:56;19.30;99.90
9043;DHT22;4556;49.150;8.808;2022-09-09T14:22:23;19.20;99.90
9043;DHT22;4556;49.150;8.808;2022-09-09T14:24:54;18.50;99.90
9043;DHT22;4556;49.150;8.808;2022-09-09T14:27:23;18.20;99.90
9043;DHT22;4556;49.150;8.808;2022-09-09T14:29:51;18.40;99.90
9043;DHT22;4556;49.150;8.808;2022-09-09T14:32:18;18.10;99.90
9043;DHT22;4556;49.150;8.808;2022-09-09T14:34:46;18.10;99.90
9043;DHT22;4556;49.150;8.808;2022-09-09T14:37:16;18.00;99.90
9043;DHT22;4556;49.150;8.808;2022-09-09T14:39:43;17.90;99.90
9043;DHT22;4556;49.150;8.808;2022-09-09T14:42:12;17.90;99.90
9043;DHT22;4556;49.150;8.808;2022-09-09T14:44:39;17.90;99.90
9043;DHT22;4556;49.150;8.808;2022-09-09T14:47:06;17.80;99.90
9043;DHT22;4556;49.150;8.808;2022-09-09T14:49:34;18.20;99.90
9043;DHT22;4556;49.150;8.808;2022-09-09T14:52:01;15.40;99.90
9043;DHT22;4556;49.150;8.808;2022-09-09T14:54:29;17.60;99.90
9043;DHT22;4556;49.150;8.808;2022-09-09T14:56:56;17.60;99.90
9043;DHT22;4556;49.150;8.808;2022-09-09T14:59:31;17.60;99.90
9043;DHT22;4556;49.150;8.808;2022-09-09T15:01:59;19.20;99.90
9043;DHT22;4556;49.150;8.808;2022-09-09T15:04:29;18.10;99.90
9043;DHT22;4556;49.150;8.808;2022-09-09T15:06:56;18.10;99.90
9043;DHT22;4556;49.150;8.808;2022-09-09T15:09:24;17.80;99.90
9043;DHT22;4556;49.150;8.808;2022-09-09T15:11:53;20.20;99.90
9043;DHT22;4556;49.150;8.808;2022-09-09T15:14:19;18.50;99.90
9043;DHT22;4556;49.150;8.808;2022-09-09T15:16:46;17.90;99.90
9043;DHT22;4556;49.150;8.808;2022-09-09T15:19:15;19.80;99.90
9043;DHT22;4556;49.150;8.808;2022-09-09T15:21:41;18.00;99.90
9043;DHT22;4556;49.150;8.808;2022-09-09T15:24:08;18.00;99.90
9043;DHT22;4556;49.150;8.808;2022-09-09T15:26:37;18.70;99.90
9043;DHT22;4556;49.150;8.808;2022-09-09T15:29:06;18.00;99.90
9043;DHT22;4556;49.150;8.808;2022-09-09T15:31:34;18.00;99.90
9043;DHT22;4556;49.150;8.808;2022-09-09T15:34:03;18.20;99.90
9043;DHT22;4556;49.150;8.808;2022-09-09T15:36:31;18.30;99.90
9043;DHT22;4556;49.150;8.808;2022-09-09T15:39:16;18.00;99.90
9043;DHT22;4556;49.150;8.808;2022-09-09T16:50:06;17.90;99.90
9043;DHT22;4556;49.150;8.808;2022-09-09T16:52:40;16.30;99.90
9043;DHT22;4556;49.150;8.808;2022-09-09T16:55:12;17.50;99.90
9043;DHT22;4556;49.150;8.808;2022-09-09T16:57:42;17.60;99.90
9043;DHT22;4556;49.150;8.808;2022-09-09T17:00:16;17.40;99.90
9043;DHT22;4556;49.150;8.808;2022-09-09T17:02:44;17.20;99.90
9043;DHT22;4556;49.150;8.808;2022-09-09T17:05:14;18.20;99.90
9043;DHT22;4556;49.150;8.808;2022-09-09T17:07:47;17.20;99.90
9043;DHT22;4556;49.150;8.808;2022-09-09T17:10:14;16.90;99.90
9043;DHT22;4556;49.150;8.808;2022-09-09T17:12:43;16.80;99.90
9043;DHT22;4556;49.150;8.808;2022-09-09T17:15:11;16.90;99.90
9043;DHT22;4556;49.150;8.808;2022-09-09T17:17:39;16.90;99.90
9043;DHT22;4556;49.150;8.808;2022-09-09T17:20:14;16.90;99.90
9043;DHT22;4556;49.150;8.808;2022-09-09T17:22:52;17.10;99.90
9043;DHT22;4556;49.150;8.808;2022-09-09T17:25:38;19.90;99.90
9043;DHT22;4556;49.150;8.808;2022-09-09T18:19:57;15.50;99.90
9043;DHT22;4556;49.150;8.808;2022-09-09T18:22:25;17.20;99.90
9043;DHT22;4556;49.150;8.808;2022-09-09T18:24:52;17.90;99.90
9043;DHT22;4556;49.150;8.808;2022-09-09T18:27:19;15.40;99.90
9043;DHT22;4556;49.150;8.808;2022-09-09T18:29:46;15.40;99.90
9043;DHT22;4556;49.150;8.808;2022-09-09T18:32:13;15.30;99.90
9043;DHT22;4556;49.150;8.808;2022-09-09T18:34:41;15.30;99.90
9043;DHT22;4556;49.150;8.808;2022-09-09T18:37:09;15.20;99.90
9043;DHT22;4556;49.150;8.808;2022-09-09T18:39:37;16.00;99.90
9043;DHT22;4556;49.150;8.808;2022-09-09T18:42:04;15.90;99.90
9043;DHT22;4556;49.150;8.808;2022-09-09T18:44:33;14.90;99.90
9043;DHT22;4556;49.150;8.808;2022-09-09T18:47:00;14.90;99.90
9043;DHT22;4556;49.150;8.808;2022-09-09T18:49:28;14.50;99.90
9043;DHT22;4556;49.150;8.808;2022-09-09T18:51:55;14.80;99.90
9043;DHT22;4556;49.150;8.808;2022-09-09T18:54:25;14.30;99.90
9043;DHT22;4556;49.150;8.808;2022-09-09T18:56:54;17.50;99.90
9043;DHT22;4556;49.150;8.808;2022-09-09T18:59:23;16.90;99.90
9043;DHT22;4556;49.150;8.808;2022-09-09T19:01:51;16.90;99.90
9043;DHT22;4556;49.150;8.808;2022-09-09T19:04:19;14.70;99.90
9043;DHT22;4556;49.150;8.808;2022-09-09T19:06:48;16.30;99.90
9043;DHT22;4556;49.150;8.808;2022-09-09T19:09:17;14.70;99.90
9043;DHT22;4556;49.150;8.808;2022-09-09T19:11:46;17.10;99.90
9043;DHT22;4556;49.150;8.808;2022-09-09T19:14:17;17.70;99.90
9043;DHT22;4556;49.150;8.808;2022-09-09T19:16:44;14.70;99.90
9043;DHT22;4556;49.150;8.808;2022-09-09T19:19:14;14.20;99.90
9043;DHT22;4556;49.150;8.808;2022-09-09T19:21:41;15.00;99.90
9043;DHT22;4556;49.150;8.808;2022-09-09T19:24:11;15.00;99.90
9043;DHT22;4556;49.150;8.808;2022-09-09T19:26:40;16.60;99.90
9043;DHT22;4556;49.150;8.808;2022-09-09T19:29:11;14.90;99.90
9043;DHT22;4556;49.150;8.808;2022-09-09T19:31:40;15.30;99.90
9043;DHT22;4556;49.150;8.808;2022-09-09T19:34:07;15.00;99.90
9043;DHT22;4556;49.150;8.808;2022-09-09T19:36:35;15.10;99.90
9043;DHT22;4556;49.150;8.808;2022-09-09T19:39:03;15.10;99.90
9043;DHT22;4556;49.150;8.808;2022-09-09T19:41:31;14.90;99.90
9043;DHT22;4556;49.150;8.808;2022-09-09T19:44:00;15.00;99.90
9043;DHT22;4556;49.150;8.808;2022-09-09T19:46:30;15.00;99.90
9043;DHT22;4556;49.150;8.808;2022-09-09T19:48:58;15.30;99.90
9043;DHT22;4556;49.150;8.808;2022-09-09T19:51:27;15.10;99.90
9043;DHT22;4556;49.150;8.808;2022-09-09T19:54:01;15.30;99.90
9043;DHT22;4556;49.150;8.808;2022-09-09T19:56:32;17.20;99.90
9043;DHT22;4556;49.150;8.808;2022-09-09T19:59:00;15.30;99.90
9043;DHT22;4556;49.150;8.808;2022-09-09T20:01:30;18.70;99.90
9043;DHT22;4556;49.150;8.808;2022-09-09T20:03:58;15.30;99.90
9043;DHT22;4556;49.150;8.808;2022-09-09T20:06:27;17.00;99.90
9043;DHT22;4556;49.150;8.808;2022-09-09T20:08:55;14.90;99.90
9043;DHT22;4556;49.150;8.808;2022-09-09T20:11:23;14.80;99.90
9043;DHT22;4556;49.150;8.808;2022-09-09T20:13:50;14.80;99.90
9043;DHT22;4556;49.150;8.808;2022-09-09T20:16:19;16.80;99.90
9043;DHT22;4556;49.150;8.808;2022-09-09T20:18:49;14.60;99.90
9043;DHT22;4556;49.150;8.808;2022-09-09T20:21:19;16.00;99.90
9043;DHT22;4556;49.150;8.808;2022-09-09T20:23:47;14.90;99.90
9043;DHT22;4556;49.150;8.808;2022-09-09T20:26:16;14.90;99.90
9043;DHT22;4556;49.150;8.808;2022-09-09T20:28:44;16.20;99.90
9043;DHT22;4556;49.150;8.808;2022-09-09T20:31:13;14.60;99.90
9043;DHT22;4556;49.150;8.808;2022-09-09T20:33:41;16.20;99.90
9043;DHT22;4556;49.150;8.808;2022-09-09T20:36:11;14.80;99.90
9043;DHT22;4556;49.150;8.808;2022-09-09T20:38:42;14.60;99.90
9043;DHT22;4556;49.150;8.808;2022-09-09T20:41:10;14.80;99.90
9043;DHT22;4556;49.150;8.808;2022-09-09T20:43:39;16.40;99.90
9043;DHT22;4556;49.150;8.808;2022-09-09T20:46:11;14.80;99.90
9043;DHT22;4556;49.150;8.808;2022-09-09T20:48:38;14.70;99.90
9043;DHT22;4556;49.150;8.808;2022-09-09T20:51:06;15.10;99.90
9043;DHT22;4556;49.150;8.808;2022-09-09T20:53:37;16.10;99.90
9043;DHT22;4556;49.150;8.808;2022-09-09T20:56:05;15.70;99.90
9043;DHT22;4556;49.150;8.808;2022-09-09T20:58:33;14.40;99.90
9043;DHT22;4556;49.150;8.808;2022-09-09T21:01:01;15.40;99.90
9043;DHT22;4556;49.150;8.808;2022-09-09T21:03:28;14.30;99.90
9043;DHT22;4556;49.150;8.808;2022-09-09T21:05:56;14.50;99.90
9043;DHT22;4556;49.150;8.808;2022-09-09T21:08:24;14.30;99.90
9043;DHT22;4556;49.150;8.808;2022-09-09T21:10:56;14.30;99.90
9043;DHT22;4556;49.150;8.808;2022-09-09T21:13:24;14.20;99.90
9043;DHT22;4556;49.150;8.808;2022-09-09T21:15:51;15.70;99.90
9043;DHT22;4556;49.150;8.808;2022-09-09T21:18:21;14.50;99.90
9043;DHT22;4556;49.150;8.808;2022-09-09T21:20:49;16.10;99.90
9043;DHT22;4556;49.150;8.808;2022-09-09T21:23:17;17.00;99.90
9043;DHT22;4556;49.150;8.808;2022-09-09T21:25:45;14.20;99.90
9043;DHT22;4556;49.150;8.808;2022-09-09T21:28:15;14.30;99.90
9043;DHT22;4556;49.150;8.808;2022-09-09T21:30:46;14.30;99.90
9043;DHT22;4556;49.150;8.808;2022-09-09T21:33:15;14.80;99.90
9043;DHT22;4556;49.150;8.808;2022-09-09T21:35:42;14.30;99.90